Latest Weather Observations for Longerenong

IDV60801

Issued at 12:05 pm EDT Saturday 29 November 2014 (issued every 30 minutes, with the page automatically refreshed every 10 minutes)

About weather observations | Map of weather stations | Latest weather observations for VIC | Other Formats
Station Details ID: 079028 Name: LONGERENONG Lat: -36.67 Lon: 142.30 Height: 133.0 m
Data from the previous 72 hours. | See also: Recent months at Longerenong
Date/Time
EDT
Temp
°C
App
Temp
°C
Dew
Point
Rel
Hum
%
Delta-T
°C
Wind Press
QNH
hPa
Press
MSL
hPa
Rain
since 9 am
mm
Dir
 
Spd
km/h
Gust
km/h
Spd
kts
Gust
kts
29/12:00pm 30.3 - - - - E 7 17 4 9 - - 0.0
29/11:30am 29.8 - - - - ENE 6 15 3 8 - - 0.0
29/11:00am 29.0 - - - - E 11 17 6 9 - - 0.0
29/10:30am 28.1 - - - - ESE 15 22 8 12 - - 0.0
29/10:00am 26.0 - - - - ESE 15 22 8 12 - - 0.0
29/09:30am 23.8 - - - - ESE 20 24 11 13 - - 0.0
29/09:00am 21.7 - - - - ESE 19 24 10 13 - - 0.0
29/08:30am 19.0 - - - - ESE 19 26 10 14 - - 0.0
29/08:00am 16.8 - - - - ESE 20 26 11 14 - - 0.0
29/07:30am 14.9 - - - - ESE 19 26 10 14 - - 0.0
29/07:00am 13.2 - - - - ESE 17 22 9 12 - - 0.0
29/06:30am 11.9 - - - - E 15 20 8 11 - - 0.0
29/06:00am 11.9 - - - - ESE 15 19 8 10 - - 0.0
29/05:30am 12.3 - - - - ESE 15 22 8 12 - - 0.0
29/05:00am 12.4 - - - - ESE 13 17 7 9 - - 0.0
29/04:30am 12.1 - - - - SE 15 17 8 9 - - 0.0
29/04:00am 12.7 - - - - ESE 11 13 6 7 - - 0.0
29/03:30am 13.8 - - - - ESE 11 13 6 7 - - 0.0
29/03:00am 13.9 - - - - SE 9 11 5 6 - - 0.0
29/02:30am 14.9 - - - - SE 11 15 6 8 - - 0.0
29/02:00am 15.8 - - - - SSE 13 17 7 9 - - 0.0
29/01:30am 16.1 - - - - SSE 13 20 7 11 - - 0.0
29/01:00am 16.1 - - - - SE 19 24 10 13 - - 0.0
29/12:30am 17.4 - - - - SE 28 41 15 22 - - 0.0
29/12:00am 17.7 - - - - SE 26 37 14 20 - - 0.0
 
Date/Time
EDT
Temp
°C
App
Temp
°C
Dew
Point
Rel
Hum
%
Delta-T
°C
Wind Press
QNH
hPa
Press
MSL
hPa
Rain
since 9 am
mm
Dir
 
Spd
km/h
Gust
km/h
Spd
kts
Gust
kts
28/11:30pm 18.5 - - - - SE 30 41 16 22 - - 0.0
28/11:00pm 19.4 - - - - SE 26 35 14 19 - - 0.0
28/10:30pm 20.8 - - - - SSE 20 28 11 15 - - 0.0
28/10:00pm 22.2 - - - - SSE 24 37 13 20 - - 0.0
28/09:30pm 20.9 - - - - ESE 6 7 3 4 - - 0.0
28/09:00pm 23.1 - - - - E 6 9 3 5 - - 0.0
28/08:30pm 25.2 - - - - E 6 9 3 5 - - 0.0
28/08:00pm 27.3 - - - - E 6 7 3 4 - - 0.0
28/07:30pm 27.8 - - - - E 6 7 3 4 - - 0.0
28/07:00pm 29.2 - - - - E 6 13 3 7 - - 0.0
28/06:30pm 28.8 - - - - SSE 6 15 3 8 - - 0.0
28/06:00pm 29.4 - - - - ESE 9 19 5 10 - - 0.0
28/05:30pm 29.7 - - - - ESE 11 20 6 11 - - 0.0
28/05:00pm 30.2 - - - - NE 4 7 2 4 - - 0.0
28/04:30pm 29.1 - - - - NNE 7 11 4 6 - - 0.0
28/04:00pm 29.3 - - - - SSE 11 20 6 11 - - 0.0
28/03:30pm 29.5 - - - - ESE 13 22 7 12 - - 0.0
28/03:00pm 27.9 - - - - S 9 20 5 11 - - 0.0
28/02:30pm 29.0 - - - - S 19 24 10 13 - - 0.0
28/02:00pm 26.9 - - - - ESE 7 19 4 10 - - 0.0
28/01:30pm 26.6 - - - - ESE 9 22 5 12 - - 0.0
28/01:00pm 25.3 - - - - SSE 11 20 6 11 - - 0.0
28/12:30pm 24.6 - - - - ESE 7 19 4 10 - - 0.0
28/12:00pm 23.7 - - - - ESE 13 22 7 12 - - 0.0
28/11:30am 21.8 - - - - SSE 15 24 8 13 - - 0.0
28/11:00am 20.8 - - - - SE 17 28 9 15 - - 0.0
28/10:30am 19.7 - - - - ESE 17 26 9 14 - - 0.0
28/10:00am 18.2 - - - - ESE 20 28 11 15 - - 0.0
28/09:30am 16.9 - - - - ESE 24 32 13 17 - - 0.0
28/09:00am 15.3 - - - - ESE 19 28 10 15 - - 0.0
28/08:30am 14.0 - - - - SE 30 37 16 20 - - 0.0
28/08:00am 12.2 - - - - SE 30 37 16 20 - - 0.0
28/07:30am 11.2 - - - - ESE 22 30 12 16 - - 0.0
28/07:00am 10.1 - - - - ESE 20 26 11 14 - - 0.0
28/06:30am 8.8 - - - - SE 13 20 7 11 - - 0.0
28/06:00am 7.5 - - - - SE 13 17 7 9 - - 0.0
28/05:30am 6.4 - - - - SE 9 11 5 6 - - 0.0
28/05:00am 7.6 - - - - SE 7 9 4 5 - - 0.0
28/04:30am 8.5 - - - - SSE 13 17 7 9 - - 0.0
28/04:00am 8.7 - - - - SSE 11 15 6 8 - - 0.0
28/03:30am 8.1 - - - - SE 7 9 4 5 - - 0.0
28/03:00am 9.2 - - - - SE 11 13 6 7 - - 0.0
28/02:30am 10.0 - - - - SE 11 15 6 8 - - 0.0
28/02:00am 10.5 - - - - SE 11 13 6 7 - - 0.0
28/01:30am 12.1 - - - - SE 13 17 7 9 - - 0.0
28/01:00am 13.2 - - - - SE 15 19 8 10 - - 0.0
28/12:30am 13.7 - - - - ESE 19 24 10 13 - - 0.0
28/12:00am 14.6 - - - - SE 20 28 11 15 - - 0.0
 
Date/Time
EDT
Temp
°C
App
Temp
°C
Dew
Point
Rel
Hum
%
Delta-T
°C
Wind Press
QNH
hPa
Press
MSL
hPa
Rain
since 9 am
mm
Dir
 
Spd
km/h
Gust
km/h
Spd
kts
Gust
kts
27/11:30pm 15.4 - - - - SE 22 26 12 14 - - 0.0
27/11:00pm 16.3 - - - - SE 24 33 13 18 - - 0.0
27/10:30pm 17.3 - - - - SE 24 35 13 19 - - 0.0
27/10:00pm 18.3 - - - - SE 22 30 12 16 - - 0.0
27/09:30pm 19.2 - - - - SE 20 30 11 16 - - 0.0
27/09:00pm 20.3 - - - - SE 26 33 14 18 - - 0.0
27/08:30pm 21.4 - - - - SE 22 32 12 17 - - 0.0
27/08:00pm 23.0 - - - - SE 24 32 13 17 - - 0.0
27/07:30pm 24.3 - - - - SE 22 32 12 17 - - 0.0
27/07:00pm 25.1 - - - - SE 24 32 13 17 - - 0.0
27/06:30pm 26.0 - - - - SE 22 32 12 17 - - 0.0
27/06:00pm 26.3 - - - - SE 19 28 10 15 - - 0.0
27/05:30pm 27.3 - - - - SE 15 26 8 14 - - 0.0
27/05:00pm 26.2 - - - - SE 17 28 9 15 - - 0.0
27/04:30pm 25.7 - - - - SSE 13 22 7 12 - - 0.0
27/04:00pm 26.3 - - - - SSE 19 26 10 14 - - 0.0
27/03:30pm 25.9 - - - - SE 22 28 12 15 - - 0.0
27/03:00pm 25.5 - - - - E 13 32 7 17 - - 0.0
27/02:30pm 24.9 - - - - SE 17 28 9 15 - - 0.0
27/02:00pm 24.2 - - - - S 13 26 7 14 - - 0.0
27/01:30pm 24.0 - - - - SSE 11 20 6 11 - - 0.0
27/01:00pm 22.3 - - - - S 9 22 5 12 - - 0.0
27/12:30pm 21.8 - - - - S 13 28 7 15 - - 0.0
27/12:00pm 20.5 - - - - SE 11 20 6 11 - - 0.0
27/11:30am 19.6 - - - - SSE 15 26 8 14 - - 0.0
27/11:00am 18.3 - - - - SSE 13 22 7 12 - - 0.0
27/10:30am 17.4 - - - - SSE 13 24 7 13 - - 0.0
27/10:00am 16.2 - - - - SE 19 28 10 15 - - 0.0
27/09:30am 15.5 - - - - SSE 24 32 13 17 - - 0.0
27/09:00am 14.4 - - - - SE 24 32 13 17 - - 0.0
27/08:30am 13.8 - - - - SE 28 35 15 19 - - 0.0
27/08:00am 12.5 - - - - SE 26 35 14 19 - - 0.0
27/07:30am 11.2 - - - - SE 19 26 10 14 - - 0.0
27/07:00am 9.8 - - - - SE 17 24 9 13 - - 0.0
27/06:30am 8.7 - - - - SE 17 20 9 11 - - 0.0
27/06:00am 8.6 - - - - SE 15 19 8 10 - - 0.0
27/05:30am 9.0 - - - - SE 15 22 8 12 - - 0.0
27/05:00am 9.1 - - - - SE 15 20 8 11 - - 0.0
27/04:30am 9.5 - - - - SE 17 20 9 11 - - 0.0
27/04:00am 9.2 - - - - SE 13 17 7 9 - - 0.0
27/03:30am 9.9 - - - - SE 13 19 7 10 - - 0.0
27/03:00am 9.7 - - - - SE 13 17 7 9 - - 0.0
27/02:30am 9.4 - - - - SE 11 13 6 7 - - 0.0
27/02:00am 9.5 - - - - SE 6 9 3 5 - - 0.0
27/01:30am 9.6 - - - - SE 7 7 4 4 - - 0.0
27/01:00am 10.7 - - - - SE 9 11 5 6 - - 0.0
27/12:30am 11.6 - - - - ESE 11 13 6 7 - - 0.0
27/12:00am 12.4 - - - - SE 13 17 7 9 - - 0.0
 
Date/Time
EDT
Temp
°C
App
Temp
°C
Dew
Point
Rel
Hum
%
Delta-T
°C
Wind Press
QNH
hPa
Press
MSL
hPa
Rain
since 9 am
mm
Dir
 
Spd
km/h
Gust
km/h
Spd
kts
Gust
kts
26/11:30pm 13.0 - - - - SE 13 17 7 9 - - 0.0
26/11:00pm 14.0 - - - - SE 19 24 10 13 - - 0.0
26/10:30pm 14.8 - - - - SE 17 26 9 14 - - 0.0
26/10:00pm 15.4 - - - - SE 15 22 8 12 - - 0.0
26/09:30pm 15.8 - - - - SSE 19 26 10 14 - - 0.0
26/09:00pm 16.1 - - - - S 22 32 12 17 - - 0.0
26/08:30pm 17.0 - - - - S 28 35 15 19 - - 0.0
26/08:00pm 18.8 - - - - S 26 35 14 19 - - 0.0
26/07:30pm 19.4 - - - - S 24 33 13 18 - - 0.0
26/07:00pm 20.1 - - - - S 28 35 15 19 - - 0.0
26/06:30pm 21.0 - - - - S 24 32 13 17 - - 0.0
26/06:00pm 21.2 - - - - SSW 24 35 13 19 - - 0.0
26/05:30pm 22.1 - - - - SSW 24 39 13 21 - - 0.0
26/05:00pm 22.1 - - - - S 24 33 13 18 - - 0.0
26/04:30pm 23.8 - - - - S 20 33 11 18 - - 0.0
26/04:00pm 22.8 - - - - S 20 32 11 17 - - 0.0
26/03:30pm 22.0 - - - - SSW 20 33 11 18 - - 0.0
26/03:00pm 21.9 - - - - SW 19 33 10 18 - - 0.0
26/02:30pm 22.1 - - - - WSW 19 28 10 15 - - 0.0
26/02:00pm 22.0 - - - - SSW 17 30 9 16 - - 0.0
26/01:30pm 21.4 - - - - SSW 17 26 9 14 - - 0.0
26/01:00pm 20.4 - - - - S 15 28 8 15 - - 0.0
26/12:30pm 20.1 - - - - SSW 11 24 6 13 - - 0.0

Other Formats:

Comma delimited format used in spreadsheet applications
http://www.bom.gov.au/fwo/IDV60801/IDV60801.95835.axf

JavaScript Object Notation format (JSON) in row-major order
http://www.bom.gov.au/fwo/IDV60801/IDV60801.95835.json